sensor_id;sensor_type;location;lat;lon;timestamp;pressure;altitude;pressure_sealevel;temperature;humidity
48200;BME280;33990;44.602;10.976;2023-07-20T00:00:54;100399.53;;;27.95;53.64
48200;BME280;33990;44.602;10.976;2023-07-20T00:03:21;100400.34;;;27.95;53.66
48200;BME280;33990;44.602;10.976;2023-07-20T00:05:52;100385.72;;;27.96;53.56
48200;BME280;33990;44.602;10.976;2023-07-20T00:08:19;100381.97;;;27.97;53.64
48200;BME280;33990;44.602;10.976;2023-07-20T00:10:47;100377.34;;;27.98;53.68
48200;BME280;33990;44.602;10.976;2023-07-20T00:13:14;100386.19;;;28.00;53.19
48200;BME280;33990;44.602;10.976;2023-07-20T00:15:43;100386.34;;;27.98;53.54
48200;BME280;33990;44.602;10.976;2023-07-20T00:18:10;100408.78;;;28.00;53.37
48200;BME280;33990;44.602;10.976;2023-07-20T00:20:37;100405.00;;;28.01;53.32
48200;BME280;33990;44.602;10.976;2023-07-20T00:23:05;100390.38;;;28.02;53.26
48200;BME280;33990;44.602;10.976;2023-07-20T00:25:34;100396.63;;;28.03;53.45
48200;BME280;33990;44.602;10.976;2023-07-20T00:28:01;100429.13;;;28.04;53.17
48200;BME280;33990;44.602;10.976;2023-07-20T00:30:29;100436.22;;;28.05;53.39
48200;BME280;33990;44.602;10.976;2023-07-20T00:32:56;100418.84;;;28.06;53.35
48200;BME280;33990;44.602;10.976;2023-07-20T00:35:24;100397.75;;;28.08;53.44
48200;BME280;33990;44.602;10.976;2023-07-20T00:37:51;100405.91;;;28.08;53.29
48200;BME280;33990;44.602;10.976;2023-07-20T00:40:20;100401.28;;;28.09;53.37
48200;BME280;33990;44.602;10.976;2023-07-20T00:42:47;100403.81;;;28.10;53.38
48200;BME280;33990;44.602;10.976;2023-07-20T00:45:21;100414.50;;;28.12;53.35
48200;BME280;33990;44.602;10.976;2023-07-20T00:47:48;100414.31;;;28.14;53.24
48200;BME280;33990;44.602;10.976;2023-07-20T00:50:16;100397.97;;;28.14;53.26
48200;BME280;33990;44.602;10.976;2023-07-20T00:52:45;100410.53;;;28.15;53.38
48200;BME280;33990;44.602;10.976;2023-07-20T00:55:13;100407.63;;;28.16;53.10
48200;BME280;33990;44.602;10.976;2023-07-20T00:57:41;100406.78;;;28.16;52.97
48200;BME280;33990;44.602;10.976;2023-07-20T01:00:09;100413.91;;;28.17;53.32
48200;BME280;33990;44.602;10.976;2023-07-20T01:02:36;100414.75;;;28.17;52.94
48200;BME280;33990;44.602;10.976;2023-07-20T01:05:05;100406.38;;;28.19;53.34
48200;BME280;33990;44.602;10.976;2023-07-20T01:10:13;100436.13;;;28.20;53.19
48200;BME280;33990;44.602;10.976;2023-07-20T01:12:47;100441.56;;;28.20;53.24
48200;BME280;33990;44.602;10.976;2023-07-20T01:15:16;100439.88;;;28.19;53.00
48200;BME280;33990;44.602;10.976;2023-07-20T01:17:43;100423.97;;;28.23;52.92
48200;BME280;33990;44.602;10.976;2023-07-20T01:20:15;100419.38;;;28.23;53.08
48200;BME280;33990;44.602;10.976;2023-07-20T01:31:30;100439.91;;;28.26;53.20
48200;BME280;33990;44.602;10.976;2023-07-20T01:34:01;100438.88;;;28.27;53.15
48200;BME280;33990;44.602;10.976;2023-07-20T01:36:30;100439.69;;;28.27;53.13
48200;BME280;33990;44.602;10.976;2023-07-20T01:38:59;100443.28;;;28.28;53.01
48200;BME280;33990;44.602;10.976;2023-07-20T01:41:27;100450.41;;;28.29;53.25
48200;BME280;33990;44.602;10.976;2023-07-20T01:43:57;100436.81;;;28.29;53.34
48200;BME280;33990;44.602;10.976;2023-07-20T01:46:26;100439.53;;;28.29;53.05
48200;BME280;33990;44.602;10.976;2023-07-20T01:48:54;100459.19;;;28.31;53.41
48200;BME280;33990;44.602;10.976;2023-07-20T01:51:22;100466.34;;;28.32;53.13
48200;BME280;33990;44.602;10.976;2023-07-20T01:53:49;100477.25;;;28.32;53.22
48200;BME280;33990;44.602;10.976;2023-07-20T01:56:17;100469.06;;;28.32;53.42
48200;BME280;33990;44.602;10.976;2023-07-20T01:58:44;100471.81;;;28.32;53.20
48200;BME280;33990;44.602;10.976;2023-07-20T02:01:11;100474.31;;;28.33;53.06
48200;BME280;33990;44.602;10.976;2023-07-20T02:03:39;100465.09;;;28.34;53.10
48200;BME280;33990;44.602;10.976;2023-07-20T02:06:06;100459.66;;;28.34;53.39
48200;BME280;33990;44.602;10.976;2023-07-20T02:08:33;100453.38;;;28.34;53.03
48200;BME280;33990;44.602;10.976;2023-07-20T02:11:01;100475.97;;;28.34;53.23
48200;BME280;33990;44.602;10.976;2023-07-20T02:13:30;100492.16;;;28.36;53.31
48200;BME280;33990;44.602;10.976;2023-07-20T02:15:57;100499.44;;;28.35;53.01
48200;BME280;33990;44.602;10.976;2023-07-20T02:18:25;100482.94;;;28.37;53.37
48200;BME280;33990;44.602;10.976;2023-07-20T02:20:55;100479.19;;;28.38;53.00
48200;BME280;33990;44.602;10.976;2023-07-20T02:23:22;100481.91;;;28.38;52.85
48200;BME280;33990;44.602;10.976;2023-07-20T02:25:50;100483.78;;;28.38;53.33
48200;BME280;33990;44.602;10.976;2023-07-20T02:28:17;100489.03;;;28.39;52.96
48200;BME280;33990;44.602;10.976;2023-07-20T02:30:45;100492.78;;;28.38;53.26
48200;BME280;33990;44.602;10.976;2023-07-20T02:33:13;100489.84;;;28.40;53.22
48200;BME280;33990;44.602;10.976;2023-07-20T02:35:40;100486.97;;;28.41;53.29
48200;BME280;33990;44.602;10.976;2023-07-20T02:38:08;100495.97;;;28.42;52.99
48200;BME280;33990;44.602;10.976;2023-07-20T02:40:35;100486.97;;;28.41;53.36
48200;BME280;33990;44.602;10.976;2023-07-20T02:43:02;100486.97;;;28.41;52.86
48200;BME280;33990;44.602;10.976;2023-07-20T02:45:30;100493.25;;;28.42;53.35
48200;BME280;33990;44.602;10.976;2023-07-20T02:47:57;100494.06;;;28.42;53.21
48200;BME280;33990;44.602;10.976;2023-07-20T02:50:24;100489.47;;;28.43;53.29
48200;BME280;33990;44.602;10.976;2023-07-20T02:52:52;100485.69;;;28.44;52.94
48200;BME280;33990;44.602;10.976;2023-07-20T02:55:19;100485.69;;;28.44;53.25
48200;BME280;33990;44.602;10.976;2023-07-20T02:57:47;100480.25;;;28.44;52.82
48200;BME280;33990;44.602;10.976;2023-07-20T03:00:15;100481.13;;;28.44;53.28
48200;BME280;33990;44.602;10.976;2023-07-20T03:02:43;100479.22;;;28.45;53.26
48200;BME280;33990;44.602;10.976;2023-07-20T03:05:10;100479.22;;;28.45;53.01
48200;BME280;33990;44.602;10.976;2023-07-20T03:07:38;100480.91;;;28.46;53.05
48200;BME280;33990;44.602;10.976;2023-07-20T03:10:06;100474.63;;;28.45;52.90
48200;BME280;33990;44.602;10.976;2023-07-20T03:12:36;100476.69;;;28.43;53.20
48200;BME280;33990;44.602;10.976;2023-07-20T03:15:04;100475.84;;;28.43;53.04
48200;BME280;33990;44.602;10.976;2023-07-20T03:17:31;100486.97;;;28.41;52.88
48200;BME280;33990;44.602;10.976;2023-07-20T03:19:59;100472.69;;;28.39;53.04
48200;BME280;33990;44.602;10.976;2023-07-20T03:22:29;100476.47;;;28.38;53.08
48200;BME280;33990;44.602;10.976;2023-07-20T03:24:56;100470.38;;;28.36;52.64
48200;BME280;33990;44.602;10.976;2023-07-20T03:27:24;100465.94;;;28.35;52.48
48200;BME280;33990;44.602;10.976;2023-07-20T03:29:51;100464.25;;;28.34;52.41
48200;BME280;33990;44.602;10.976;2023-07-20T03:32:19;100456.31;;;28.32;52.27
48200;BME280;33990;44.602;10.976;2023-07-20T03:34:46;100459.03;;;28.32;52.75
48200;BME280;33990;44.602;10.976;2023-07-20T03:37:14;100464.47;;;28.32;52.47
48200;BME280;33990;44.602;10.976;2023-07-20T03:39:42;100466.34;;;28.32;52.85
48200;BME280;33990;44.602;10.976;2023-07-20T03:42:09;100445.41;;;28.32;52.48
48200;BME280;33990;44.602;10.976;2023-07-20T03:44:36;100442.69;;;28.32;52.83
48200;BME280;33990;44.602;10.976;2023-07-20T03:47:04;100439.13;;;28.32;52.36
48200;BME280;33990;44.602;10.976;2023-07-20T03:49:32;100444.56;;;28.32;52.75
48200;BME280;33990;44.602;10.976;2023-07-20T03:52:00;100452.09;;;28.30;52.50
48200;BME280;33990;44.602;10.976;2023-07-20T03:54:27;100457.53;;;28.30;52.49
48200;BME280;33990;44.602;10.976;2023-07-20T03:56:54;100462.13;;;28.29;52.16
48200;BME280;33990;44.602;10.976;2023-07-20T03:59:22;100463.81;;;28.30;52.53
48200;BME280;33990;44.602;10.976;2023-07-20T04:01:49;100461.09;;;28.30;52.11
48200;BME280;33990;44.602;10.976;2023-07-20T04:04:16;100444.75;;;28.30;52.49
48200;BME280;33990;44.602;10.976;2023-07-20T04:06:44;100433.88;;;28.30;52.22
48200;BME280;33990;44.602;10.976;2023-07-20T04:09:12;100438.25;;;28.31;52.03
48200;BME280;33990;44.602;10.976;2023-07-20T04:11:39;100446.44;;;28.31;52.41
48200;BME280;33990;44.602;10.976;2023-07-20T04:14:07;100446.25;;;28.33;52.15
48200;BME280;33990;44.602;10.976;2023-07-20T04:16:35;100438.06;;;28.33;52.27
48200;BME280;33990;44.602;10.976;2023-07-20T04:19:02;100440.81;;;28.33;52.30
48200;BME280;33990;44.602;10.976;2023-07-20T04:21:30;100439.13;;;28.32;51.87
48200;BME280;33990;44.602;10.976;2023-07-20T04:23:57;100446.25;;;28.33;51.62
48200;BME280;33990;44.602;10.976;2023-07-20T04:26:26;100448.97;;;28.33;51.72
48200;BME280;33990;44.602;10.976;2023-07-20T04:28:53;100450.00;;;28.32;51.53
48200;BME280;33990;44.602;10.976;2023-07-20T04:31:39;100442.88;;;28.31;51.83
48200;BME280;33990;44.602;10.976;2023-07-20T04:34:06;100457.31;;;28.31;51.80
48200;BME280;33990;44.602;10.976;2023-07-20T04:36:35;100445.81;;;28.29;51.43
48200;BME280;33990;44.602;10.976;2023-07-20T04:39:04;100453.97;;;28.29;51.78
48200;BME280;33990;44.602;10.976;2023-07-20T04:41:48;100450.41;;;28.29;51.56
48200;BME280;33990;44.602;10.976;2023-07-20T04:44:16;100453.13;;;28.29;51.84
48200;BME280;33990;44.602;10.976;2023-07-20T04:46:43;100457.75;;;28.28;51.61
48200;BME280;33990;44.602;10.976;2023-07-20T04:49:13;100448.75;;;28.28;51.56
48200;BME280;33990;44.602;10.976;2023-07-20T04:51:43;100451.47;;;28.28;51.67
48200;BME280;33990;44.602;10.976;2023-07-20T04:54:11;100453.13;;;28.29;51.88
48200;BME280;33990;44.602;10.976;2023-07-20T04:56:39;100453.97;;;28.29;52.41
48200;BME280;33990;44.602;10.976;2023-07-20T04:59:09;100446.84;;;28.28;52.19
48200;BME280;33990;44.602;10.976;2023-07-20T05:01:36;100446.00;;;28.28;52.15
48200;BME280;33990;44.602;10.976;2023-07-20T05:04:04;100444.13;;;28.28;52.27
48200;BME280;33990;44.602;10.976;2023-07-20T05:06:34;100443.28;;;28.28;52.28
48200;BME280;33990;44.602;10.976;2023-07-20T05:09:01;100456.03;;;28.27;52.64
48200;BME280;33990;44.602;10.976;2023-07-20T05:11:29;100450.59;;;28.27;52.57
48200;BME280;33990;44.602;10.976;2023-07-20T05:13:56;100450.59;;;28.27;52.55
48200;BME280;33990;44.602;10.976;2023-07-20T05:16:24;100461.47;;;28.27;52.19
48200;BME280;33990;44.602;10.976;2023-07-20T05:18:52;100449.56;;;28.28;52.34
48200;BME280;33990;44.602;10.976;2023-07-20T05:21:20;100449.75;;;28.27;51.98
48200;BME280;33990;44.602;10.976;2023-07-20T05:23:47;100451.47;;;28.28;52.30
48200;BME280;33990;44.602;10.976;2023-07-20T05:26:15;100450.59;;;28.27;52.20
48200;BME280;33990;44.602;10.976;2023-07-20T05:28:42;100455.03;;;28.28;52.51
48200;BME280;33990;44.602;10.976;2023-07-20T05:31:10;100453.97;;;28.29;52.51
48200;BME280;33990;44.602;10.976;2023-07-20T05:33:37;100456.69;;;28.29;52.27
48200;BME280;33990;44.602;10.976;2023-07-20T05:36:05;100460.25;;;28.30;52.45
48200;BME280;33990;44.602;10.976;2023-07-20T05:38:32;100461.94;;;28.31;52.36
48200;BME280;33990;44.602;10.976;2023-07-20T05:41:00;100463.63;;;28.32;52.52
48200;BME280;33990;44.602;10.976;2023-07-20T05:43:30;100465.09;;;28.34;52.55
48200;BME280;33990;44.602;10.976;2023-07-20T05:45:58;100462.38;;;28.34;52.97
48200;BME280;33990;44.602;10.976;2023-07-20T05:48:25;100469.50;;;28.35;53.11
48200;BME280;33990;44.602;10.976;2023-07-20T05:50:53;100459.50;;;28.36;52.96
48200;BME280;33990;44.602;10.976;2023-07-20T05:53:20;100463.19;;;28.35;52.77
48200;BME280;33990;44.602;10.976;2023-07-20T05:55:52;100459.50;;;28.36;52.96
48200;BME280;33990;44.602;10.976;2023-07-20T05:58:20;100464.03;;;28.35;53.12
48200;BME280;33990;44.602;10.976;2023-07-20T06:00:48;100459.50;;;28.36;52.90
48200;BME280;33990;44.602;10.976;2023-07-20T06:03:16;100472.22;;;28.35;52.75
48200;BME280;33990;44.602;10.976;2023-07-20T06:05:44;100473.09;;;28.36;52.91
48200;BME280;33990;44.602;10.976;2023-07-20T06:08:11;100474.94;;;28.35;52.68
48200;BME280;33990;44.602;10.976;2023-07-20T06:10:38;100477.50;;;28.37;53.28
48200;BME280;33990;44.602;10.976;2023-07-20T06:13:07;100477.50;;;28.37;53.04
48200;BME280;33990;44.602;10.976;2023-07-20T06:15:35;100484.63;;;28.38;53.07
48200;BME280;33990;44.602;10.976;2023-07-20T06:18:02;100485.47;;;28.39;53.14
48200;BME280;33990;44.602;10.976;2023-07-20T06:20:31;100493.44;;;28.40;53.34
48200;BME280;33990;44.602;10.976;2023-07-20T06:22:58;100491.56;;;28.41;53.22
48200;BME280;33990;44.602;10.976;2023-07-20T06:25:26;100493.03;;;28.43;53.04
48200;BME280;33990;44.602;10.976;2023-07-20T06:27:55;100496.19;;;28.47;53.17
48200;BME280;33990;44.602;10.976;2023-07-20T06:30:23;100498.72;;;28.48;53.02
48200;BME280;33990;44.602;10.976;2023-07-20T06:32:51;100494.13;;;28.49;53.08
48200;BME280;33990;44.602;10.976;2023-07-20T06:35:19;100490.34;;;28.50;52.71
48200;BME280;33990;44.602;10.976;2023-07-20T06:37:46;100496.84;;;28.49;52.13
48200;BME280;33990;44.602;10.976;2023-07-20T06:40:13;100491.78;;;28.46;51.86
48200;BME280;33990;44.602;10.976;2023-07-20T06:42:44;100493.88;;;28.44;51.51
48200;BME280;33990;44.602;10.976;2023-07-20T06:45:14;100490.31;;;28.43;51.66
48200;BME280;33990;44.602;10.976;2023-07-20T06:47:41;100498.91;;;28.40;52.19
48200;BME280;33990;44.602;10.976;2023-07-20T06:50:10;100499.03;;;28.32;51.48
48200;BME280;33990;44.602;10.976;2023-07-20T06:52:43;100506.53;;;28.30;51.36
48200;BME280;33990;44.602;10.976;2023-07-20T06:55:11;100502.75;;;28.31;51.80
48200;BME280;33990;44.602;10.976;2023-07-20T06:57:38;100503.19;;;28.28;51.30
48200;BME280;33990;44.602;10.976;2023-07-20T07:00:06;100508.81;;;28.26;51.50
48200;BME280;33990;44.602;10.976;2023-07-20T07:02:34;100512.38;;;28.27;51.29
48200;BME280;33990;44.602;10.976;2023-07-20T07:05:02;100504.03;;;28.28;51.82
48200;BME280;33990;44.602;10.976;2023-07-20T07:07:46;100509.91;;;28.32;51.83
48200;BME280;33990;44.602;10.976;2023-07-20T07:10:14;100510.75;;;28.32;51.85
48200;BME280;33990;44.602;10.976;2023-07-20T07:12:41;100514.94;;;28.35;51.40
48200;BME280;33990;44.602;10.976;2023-07-20T07:15:09;100518.97;;;28.39;51.76
48200;BME280;33990;44.602;10.976;2023-07-20T07:17:38;100510.81;;;28.39;51.48
48200;BME280;33990;44.602;10.976;2023-07-20T07:20:06;100503.28;;;28.41;51.64
48200;BME280;33990;44.602;10.976;2023-07-20T07:22:37;100509.56;;;28.42;51.36
48200;BME280;33990;44.602;10.976;2023-07-20T07:25:05;100515.84;;;28.42;51.58
48200;BME280;33990;44.602;10.976;2023-07-20T07:27:34;100511.91;;;28.45;51.57
48200;BME280;33990;44.602;10.976;2023-07-20T07:30:05;100504.56;;;28.45;51.49
48200;BME280;33990;44.602;10.976;2023-07-20T07:32:33;100507.28;;;28.45;51.75
48200;BME280;33990;44.602;10.976;2023-07-20T07:35:00;100519.03;;;28.46;51.93
48200;BME280;33990;44.602;10.976;2023-07-20T07:37:27;100518.81;;;28.47;51.61
48200;BME280;33990;44.602;10.976;2023-07-20T07:39:59;100524.69;;;28.51;51.23
48200;BME280;33990;44.602;10.976;2023-07-20T07:42:28;100521.81;;;28.52;51.60
48200;BME280;33990;44.602;10.976;2023-07-20T07:44:56;100514.25;;;28.54;51.32
48200;BME280;33990;44.602;10.976;2023-07-20T07:47:24;100524.75;;;28.57;51.32
48200;BME280;33990;44.602;10.976;2023-07-20T07:49:51;100521.19;;;28.57;51.49
48200;BME280;33990;44.602;10.976;2023-07-20T07:52:18;100531.88;;;28.58;51.91
48200;BME280;33990;44.602;10.976;2023-07-20T07:54:46;100518.69;;;28.62;51.43
48200;BME280;33990;44.602;10.976;2023-07-20T07:57:13;100520.19;;;28.65;51.33
48200;BME280;33990;44.602;10.976;2023-07-20T07:59:41;100529.00;;;28.67;51.68
48200;BME280;33990;44.602;10.976;2023-07-20T08:02:08;100525.22;;;28.68;51.54
48200;BME280;33990;44.602;10.976;2023-07-20T08:04:35;100529.44;;;28.70;51.25
48200;BME280;33990;44.602;10.976;2023-07-20T08:07:03;100527.53;;;28.71;51.79
48200;BME280;33990;44.602;10.976;2023-07-20T08:09:31;100517.50;;;28.71;51.33
48200;BME280;33990;44.602;10.976;2023-07-20T08:11:58;100518.97;;;28.74;51.80
48200;BME280;33990;44.602;10.976;2023-07-20T08:14:26;100517.94;;;28.75;51.45
48200;BME280;33990;44.602;10.976;2023-07-20T08:16:54;100512.31;;;28.76;51.80
48200;BME280;33990;44.602;10.976;2023-07-20T08:19:22;100525.69;;;28.78;51.57
48200;BME280;33990;44.602;10.976;2023-07-20T08:21:51;100519.41;;;28.77;51.82
48200;BME280;33990;44.602;10.976;2023-07-20T08:24:18;100515.84;;;28.77;51.57
48200;BME280;33990;44.602;10.976;2023-07-20T08:26:45;100515.66;;;28.78;51.62
48200;BME280;33990;44.602;10.976;2023-07-20T08:29:13;100518.38;;;28.78;51.87
48200;BME280;33990;44.602;10.976;2023-07-20T08:31:41;100515.84;;;28.77;51.86
48200;BME280;33990;44.602;10.976;2023-07-20T08:34:08;100520.25;;;28.78;51.64
48200;BME280;33990;44.602;10.976;2023-07-20T08:36:56;100522.97;;;28.78;51.73
48200;BME280;33990;44.602;10.976;2023-07-20T08:39:23;100526.31;;;28.80;51.43
48200;BME280;33990;44.602;10.976;2023-07-20T08:41:51;100520.69;;;28.81;51.50
48200;BME280;33990;44.602;10.976;2023-07-20T08:44:19;100526.78;;;28.83;51.47
48200;BME280;33990;44.602;10.976;2023-07-20T08:46:47;100520.31;;;28.85;51.48
48200;BME280;33990;44.602;10.976;2023-07-20T08:49:17;100517.16;;;28.88;51.68
48200;BME280;33990;44.602;10.976;2023-07-20T08:51:46;100519.88;;;28.88;51.88
48200;BME280;33990;44.602;10.976;2023-07-20T08:54:14;100513.81;;;28.86;51.50
48200;BME280;33990;44.602;10.976;2023-07-20T08:56:42;100516.31;;;28.87;51.67
48200;BME280;33990;44.602;10.976;2023-07-20T08:59:17;100508.78;;;28.89;51.82
48200;BME280;33990;44.602;10.976;2023-07-20T09:01:45;100515.25;;;28.88;51.46
48200;BME280;33990;44.602;10.976;2023-07-20T09:04:13;100518.63;;;28.90;51.43
48200;BME280;33990;44.602;10.976;2023-07-20T09:06:40;100505.84;;;28.91;51.47
48200;BME280;33990;44.602;10.976;2023-07-20T09:09:11;100499.34;;;28.92;51.63
48200;BME280;33990;44.602;10.976;2023-07-20T09:11:40;100505.63;;;28.92;51.57
48200;BME280;33990;44.602;10.976;2023-07-20T09:14:09;100505.63;;;28.92;51.74
48200;BME280;33990;44.602;10.976;2023-07-20T09:16:47;100503.13;;;28.91;51.88
48200;BME280;33990;44.602;10.976;2023-07-20T09:19:16;100507.75;;;28.90;51.59
48200;BME280;33990;44.602;10.976;2023-07-20T09:21:45;100501.25;;;28.91;51.60
48200;BME280;33990;44.602;10.976;2023-07-20T09:24:14;100503.97;;;28.91;51.82
48200;BME280;33990;44.602;10.976;2023-07-20T09:26:44;100505.63;;;28.92;52.10
48200;BME280;33990;44.602;10.976;2023-07-20T09:29:18;100505.63;;;28.92;51.93
48200;BME280;33990;44.602;10.976;2023-07-20T09:32:04;100500.19;;;28.92;52.52
48200;BME280;33990;44.602;10.976;2023-07-20T09:34:32;100508.19;;;28.94;52.65
48200;BME280;33990;44.602;10.976;2023-07-20T09:37:03;100505.63;;;28.92;52.70
48200;BME280;33990;44.602;10.976;2023-07-20T09:39:32;100505.63;;;28.92;52.61
48200;BME280;33990;44.602;10.976;2023-07-20T09:42:02;100508.34;;;28.92;52.40
48200;BME280;33990;44.602;10.976;2023-07-20T09:44:35;100500.19;;;28.92;52.61
48200;BME280;33990;44.602;10.976;2023-07-20T09:47:05;100501.88;;;28.93;52.50
48200;BME280;33990;44.602;10.976;2023-07-20T09:49:39;100503.56;;;28.94;52.33
48200;BME280;33990;44.602;10.976;2023-07-20T09:52:10;100506.28;;;28.94;52.48
48200;BME280;33990;44.602;10.976;2023-07-20T09:54:38;100502.50;;;28.95;52.54
48200;BME280;33990;44.602;10.976;2023-07-20T09:57:07;100498.72;;;28.96;52.37
48200;BME280;33990;44.602;10.976;2023-07-20T09:59:36;100496.91;;;28.97;52.35
48200;BME280;33990;44.602;10.976;2023-07-20T10:02:08;100499.41;;;28.98;52.70
48200;BME280;33990;44.602;10.976;2023-07-20T10:04:42;100501.31;;;28.98;53.42
48200;BME280;33990;44.602;10.976;2023-07-20T10:07:10;100495.84;;;28.98;53.35
48200;BME280;33990;44.602;10.976;2023-07-20T10:09:41;100494.81;;;28.99;53.15
48200;BME280;33990;44.602;10.976;2023-07-20T10:12:10;100490.19;;;28.99;53.36
48200;BME280;33990;44.602;10.976;2023-07-20T10:14:50;100492.91;;;28.99;53.56
48200;BME280;33990;44.602;10.976;2023-07-20T10:17:20;100491.88;;;29.00;53.32
48200;BME280;33990;44.602;10.976;2023-07-20T10:19:52;100492.72;;;29.01;53.67
48200;BME280;33990;44.602;10.976;2023-07-20T10:22:26;100490.63;;;29.03;54.00
48200;BME280;33990;44.602;10.976;2023-07-20T10:24:54;100491.47;;;29.03;54.22
48200;BME280;33990;44.602;10.976;2023-07-20T10:27:21;100495.03;;;29.04;54.26
48200;BME280;33990;44.602;10.976;2023-07-20T10:29:50;100493.13;;;29.04;53.84
48200;BME280;33990;44.602;10.976;2023-07-20T10:32:19;100482.88;;;29.06;53.98
48200;BME280;33990;44.602;10.976;2023-07-20T10:34:51;100485.59;;;29.06;54.52
48200;BME280;33990;44.602;10.976;2023-07-20T10:37:48;100490.84;;;29.08;54.17
48200;BME280;33990;44.602;10.976;2023-07-20T10:43:20;100487.72;;;29.11;55.01
48200;BME280;33990;44.602;10.976;2023-07-20T10:45:52;100476.59;;;29.13;54.80
48200;BME280;33990;44.602;10.976;2023-07-20T10:48:24;100473.88;;;29.13;54.45
48200;BME280;33990;44.602;10.976;2023-07-20T10:51:12;100467.41;;;29.14;55.13
48200;BME280;33990;44.602;10.976;2023-07-20T10:53:41;100466.13;;;29.16;55.25
48200;BME280;33990;44.602;10.976;2023-07-20T10:56:19;100465.09;;;29.17;54.94
48200;BME280;33990;44.602;10.976;2023-07-20T10:58:47;100464.06;;;29.18;55.05
48200;BME280;33990;44.602;10.976;2023-07-20T11:01:18;100460.50;;;29.18;54.79
48200;BME280;33990;44.602;10.976;2023-07-20T11:03:50;100460.28;;;29.19;54.80
48200;BME280;33990;44.602;10.976;2023-07-20T11:09:10;100448.53;;;29.19;55.07
48200;BME280;33990;44.602;10.976;2023-07-20T11:11:46;100451.88;;;29.21;54.97
48200;BME280;33990;44.602;10.976;2023-07-20T11:14:22;100456.31;;;29.22;55.02
48200;BME280;33990;44.602;10.976;2023-07-20T11:16:51;100448.13;;;29.22;55.35
48200;BME280;33990;44.602;10.976;2023-07-20T11:21:57;100452.31;;;29.24;56.10
48200;BME280;33990;44.602;10.976;2023-07-20T11:24:28;100450.41;;;29.25;55.92
48200;BME280;33990;44.602;10.976;2023-07-20T11:26:55;100437.84;;;29.24;55.80
48200;BME280;33990;44.602;10.976;2023-07-20T11:29:23;100444.97;;;29.25;55.98
48200;BME280;33990;44.602;10.976;2023-07-20T11:32:00;100434.91;;;29.25;55.79
48200;BME280;33990;44.602;10.976;2023-07-20T11:34:30;100443.94;;;29.26;55.64
48200;BME280;33990;44.602;10.976;2023-07-20T11:36:58;100430.50;;;29.24;55.53
48200;BME280;33990;44.602;10.976;2023-07-20T11:39:28;100434.06;;;29.25;55.65
48200;BME280;33990;44.602;10.976;2023-07-20T11:41:57;100424.00;;;29.25;55.43
48200;BME280;33990;44.602;10.976;2023-07-20T11:44:28;100427.56;;;29.26;55.97
48200;BME280;33990;44.602;10.976;2023-07-20T11:47:00;100420.41;;;29.12;55.41
48200;BME280;33990;44.602;10.976;2023-07-20T11:49:34;100414.81;;;28.72;54.70
48200;BME280;33990;44.602;10.976;2023-07-20T11:52:03;100413.88;;;28.45;54.59
48200;BME280;33990;44.602;10.976;2023-07-20T11:54:31;100418.13;;;28.26;53.81
48200;BME280;33990;44.602;10.976;2023-07-20T11:57:02;100413.84;;;28.10;53.33
48200;BME280;33990;44.602;10.976;2023-07-20T11:59:29;100409.16;;;27.97;52.42
48200;BME280;33990;44.602;10.976;2023-07-20T12:02:02;100404.50;;;27.84;52.22
48200;BME280;33990;44.602;10.976;2023-07-20T12:04:33;100406.53;;;27.76;51.43
48200;BME280;33990;44.602;10.976;2023-07-20T12:07:01;100396.78;;;27.67;50.69
48200;BME280;33990;44.602;10.976;2023-07-20T12:09:28;100403.00;;;27.60;50.47
48200;BME280;33990;44.602;10.976;2023-07-20T12:12:16;100394.16;;;27.52;49.95
48200;BME280;33990;44.602;10.976;2023-07-20T12:14:43;100391.19;;;27.47;49.31
48200;BME280;33990;44.602;10.976;2023-07-20T12:17:11;100389.25;;;27.41;48.90
48200;BME280;33990;44.602;10.976;2023-07-20T12:19:38;100380.19;;;27.33;48.14
48200;BME280;33990;44.602;10.976;2023-07-20T12:22:07;100379.28;;;27.26;47.82
48200;BME280;33990;44.602;10.976;2023-07-20T12:24:35;100388.44;;;27.19;47.46
48200;BME280;33990;44.602;10.976;2023-07-20T12:27:03;100376.66;;;27.11;46.67
48200;BME280;33990;44.602;10.976;2023-07-20T12:29:30;100369.22;;;27.05;46.44
48200;BME280;33990;44.602;10.976;2023-07-20T12:32:03;100365.63;;;26.98;46.07
48200;BME280;33990;44.602;10.976;2023-07-20T12:34:30;100373.50;;;26.93;45.73
48200;BME280;33990;44.602;10.976;2023-07-20T12:36:58;100368.03;;;26.86;45.60
48200;BME280;33990;44.602;10.976;2023-07-20T12:39:26;100372.16;;;26.82;45.16
48200;BME280;33990;44.602;10.976;2023-07-20T12:41:53;100362.88;;;26.77;44.95
48200;BME280;33990;44.602;10.976;2023-07-20T12:44:20;100365.13;;;26.73;44.37
48200;BME280;33990;44.602;10.976;2023-07-20T12:46:48;100359.25;;;26.70;44.80
48200;BME280;33990;44.602;10.976;2023-07-20T12:49:15;100366.75;;;26.68;44.82
48200;BME280;33990;44.602;10.976;2023-07-20T12:51:42;100360.28;;;26.69;44.91
48200;BME280;33990;44.602;10.976;2023-07-20T12:54:10;100364.03;;;26.68;44.92
48200;BME280;33990;44.602;10.976;2023-07-20T12:56:38;100357.78;;;26.67;45.03
48200;BME280;33990;44.602;10.976;2023-07-20T12:59:08;100355.22;;;26.66;44.84
48200;BME280;33990;44.602;10.976;2023-07-20T13:01:35;100347.28;;;26.64;44.68
48200;BME280;33990;44.602;10.976;2023-07-20T13:04:05;100342.06;;;26.62;44.68
48200;BME280;33990;44.602;10.976;2023-07-20T13:06:35;100340.34;;;26.61;44.47
48200;BME280;33990;44.602;10.976;2023-07-20T13:09:03;100342.22;;;26.61;44.72